Time;durP1;ratioP1;P1;durP2;ratioP2;P2;SDS_P1;SDS_P2;PMS_P1;PMS_P2;Temp;Humidity;BMP_temperature;BMP_pressure;BME280_temperature;BME280_humidity;BME280_pressure;Samples;Min_cycle;Max_cycle;Signal;HPM_P1;HPM_P2
2022/06/21 00:00:08;;;;;;;4.88;3.17;;;21.10;99.90;;;;;;4202749;28;20104;-69
2022/06/21 00:02:11;;;;;;;5.60;3.55;;;21.00;99.90;;;;;;4207501;28;20048;-66
2022/06/21 00:04:13;;;;;;;3.70;3.30;;;21.00;99.90;;;;;;4208471;28;20020;-68
2022/06/21 00:06:17;;;;;;;4.10;3.72;;;21.00;99.90;;;;;;4209117;28;20036;-68
2022/06/21 00:08:29;;;;;;;6.60;4.10;;;20.90;99.90;;;;;;4207664;28;20101;-68
2022/06/21 00:10:34;;;;;;;3.17;2.88;;;21.00;99.90;;;;;;4209517;28;20032;-65
2022/06/21 00:12:35;;;;;;;5.05;3.40;;;21.00;99.90;;;;;;4207958;28;20016;-66
2022/06/21 00:14:36;;;;;;;4.95;3.00;;;21.00;99.90;;;;;;4209446;28;20426;-67
2022/06/21 00:16:37;;;;;;;9.45;3.63;;;21.00;99.90;;;;;;4208526;28;20823;-67
2022/06/21 00:18:42;;;;;;;4.40;3.65;;;21.00;99.90;;;;;;4207798;28;20846;-64
2022/06/21 00:20:44;;;;;;;5.10;3.72;;;21.00;99.90;;;;;;4208707;28;20040;-63
2022/06/21 00:22:45;;;;;;;4.70;3.25;;;21.00;99.90;;;;;;4193566;28;20090;-64
2022/06/21 00:24:46;;;;;;;4.85;3.22;;;21.00;99.90;;;;;;4192366;28;20476;-65
2022/06/21 00:26:47;;;;;;;4.43;3.45;;;20.90;99.90;;;;;;4191221;28;20082;-64
2022/06/21 00:28:49;;;;;;;3.72;2.80;;;21.00;99.90;;;;;;4207454;28;20102;-67
2022/06/21 00:30:52;;;;;;;4.50;3.50;;;21.00;99.90;;;;;;4208273;28;20029;-66
2022/06/21 00:32:55;;;;;;;6.03;3.50;;;20.90;99.90;;;;;;4209644;28;20058;-65
2022/06/21 00:34:56;;;;;;;5.50;3.60;;;20.90;99.90;;;;;;4207776;28;20081;-64
2022/06/21 00:37:00;;;;;;;3.83;3.53;;;20.90;99.90;;;;;;4209152;28;20090;-65
2022/06/21 00:39:03;;;;;;;4.25;3.40;;;20.90;99.90;;;;;;4201791;28;20032;-66
2022/06/21 00:41:06;;;;;;;4.38;3.15;;;20.80;99.90;;;;;;4192279;28;20036;-63
2022/06/21 00:43:12;;;;;;;3.28;3.00;;;20.80;99.90;;;;;;4195826;28;20070;-66
2022/06/21 00:45:41;;;;;;;6.63;2.97;;;20.80;99.90;;;;;;4209269;28;20032;-64
2022/06/21 00:47:51;;;;;;;4.85;3.55;;;20.80;99.90;;;;;;4207788;28;20048;-63
2022/06/21 00:49:58;;;;;;;5.30;3.22;;;20.80;99.90;;;;;;4209569;28;20065;-64
2022/06/21 00:52:14;;;;;;;3.72;3.10;;;20.80;99.90;;;;;;4207606;28;20040;-64
2022/06/21 00:54:29;;;;;;;3.65;3.35;;;20.80;99.90;;;;;;4208262;28;20044;-65
2022/06/21 00:56:42;;;;;;;9.07;3.75;;;20.70;99.90;;;;;;4191690;28;20028;-65
2022/06/21 00:58:44;;;;;;;3.03;2.83;;;20.70;99.90;;;;;;4192126;28;20032;-64
2022/06/21 01:01:14;;;;;;;4.28;2.85;;;20.60;99.90;;;;;;4191353;28;20056;-68
2022/06/21 01:03:24;;;;;;;5.82;3.58;;;20.60;99.90;;;;;;4192260;28;20480;-66
2022/06/21 01:05:28;;;;;;;4.60;3.17;;;20.50;99.90;;;;;;4191014;28;20028;-68
2022/06/21 01:07:32;;;;;;;3.20;2.92;;;20.50;99.90;;;;;;4192356;28;20586;-67
2022/06/21 01:09:39;;;;;;;8.27;3.10;;;20.60;99.90;;;;;;4190559;28;20044;-65
2022/06/21 01:11:59;;;;;;;4.05;2.90;;;20.60;99.90;;;;;;4191721;28;20117;-64
2022/06/21 01:14:02;;;;;;;3.25;2.95;;;20.50;99.90;;;;;;4194313;28;20028;-63
2022/06/21 01:16:04;;;;;;;3.38;3.08;;;20.50;99.90;;;;;;4208981;28;20559;-64
2022/06/21 01:18:07;;;;;;;3.05;2.80;;;20.50;99.90;;;;;;4206894;28;20024;-65
2022/06/21 01:20:14;;;;;;;3.63;3.30;;;20.50;99.90;;;;;;4202353;28;20033;-68
2022/06/21 01:22:15;;;;;;;3.70;3.20;;;20.50;99.90;;;;;;4190375;28;20029;-64
2022/06/21 01:25:00;;;;;;;3.83;3.05;;;20.50;99.90;;;;;;4191930;28;20106;-67
2022/06/21 01:27:03;;;;;;;3.78;2.97;;;20.50;99.90;;;;;;4156243;28;20080;-66
2022/06/21 01:29:10;;;;;;;3.30;3.00;;;20.50;99.90;;;;;;4166891;28;20044;-67
2022/06/21 01:31:11;;;;;;;3.60;3.17;;;20.50;99.90;;;;;;4173560;28;20086;-65
2022/06/21 01:33:15;;;;;;;4.20;3.08;;;20.40;99.90;;;;;;4175313;28;20044;-70
2022/06/21 01:35:34;;;;;;;4.93;3.13;;;20.40;99.90;;;;;;4173871;28;20045;-68
2022/06/21 01:37:35;;;;;;;4.35;2.92;;;20.40;99.90;;;;;;4174743;28;20037;-65
2022/06/21 01:39:46;;;;;;;3.88;3.25;;;20.40;99.90;;;;;;4173711;28;20094;-67
2022/06/21 01:42:25;;;;;;;6.10;2.80;;;20.40;99.90;;;;;;4203561;28;20081;-65
2022/06/21 01:44:30;;;;;;;3.05;2.75;;;20.40;99.90;;;;;;4199990;28;20036;-65
2022/06/21 01:46:32;;;;;;;8.07;3.42;;;20.40;99.90;;;;;;4207753;28;20040;-65
2022/06/21 01:48:45;;;;;;;5.45;3.15;;;20.30;99.90;;;;;;4205266;28;20687;-65
2022/06/21 01:50:50;;;;;;;12.35;4.45;;;20.20;99.90;;;;;;4208450;28;20093;-64
2022/06/21 01:52:54;;;;;;;6.18;4.03;;;20.00;99.90;;;;;;4206918;28;20028;-65
2022/06/21 01:55:02;;;;;;;6.20;3.78;;;19.60;99.90;;;;;;4207888;28;20077;-65
2022/06/21 01:57:03;;;;;;;6.47;4.13;;;19.30;99.90;;;;;;4194312;28;20439;-66
2022/06/21 01:59:17;;;;;;;7.63;4.63;;;19.20;99.90;;;;;;4191148;28;20038;-65
2022/06/21 02:01:25;;;;;;;7.10;5.20;;;19.00;99.90;;;;;;4189890;28;20105;-66
2022/06/21 02:03:32;;;;;;;6.93;5.22;;;18.90;99.90;;;;;;4190862;28;20028;-66
2022/06/21 02:05:40;;;;;;;7.45;5.65;;;18.80;99.90;;;;;;4205365;28;20069;-65
2022/06/21 02:07:47;;;;;;;7.82;5.75;;;18.70;99.90;;;;;;4189131;28;20570;-66
2022/06/21 02:10:13;;;;;;;8.38;5.18;;;18.60;99.90;;;;;;4196187;28;20926;-69
2022/06/21 02:12:15;;;;;;;8.63;5.57;;;18.60;99.90;;;;;;4189637;28;20554;-64
2022/06/21 02:14:29;;;;;;;9.48;5.60;;;18.50;99.90;;;;;;4189870;28;20493;-65
2022/06/21 02:16:32;;;;;;;11.25;5.78;;;18.40;99.90;;;;;;4190864;28;20089;-68
2022/06/21 02:18:38;;;;;;;14.60;6.20;;;18.40;99.90;;;;;;4189825;28;20044;-65
2022/06/21 02:20:50;;;;;;;9.05;6.43;;;18.30;99.90;;;;;;4178922;28;20448;-65
2022/06/21 02:22:51;;;;;;;10.63;6.35;;;18.30;99.90;;;;;;4172535;28;20097;-65
2022/06/21 02:24:54;;;;;;;9.63;6.00;;;18.20;99.90;;;;;;4174427;28;20094;-65
2022/06/21 02:26:57;;;;;;;7.38;5.88;;;18.10;99.90;;;;;;4173184;28;20497;-66
2022/06/21 02:29:00;;;;;;;12.55;6.18;;;18.00;99.90;;;;;;4173852;28;20094;-65
2022/06/21 02:31:01;;;;;;;8.68;5.63;;;18.00;99.90;;;;;;4173035;28;20033;-67
2022/06/21 02:33:05;;;;;;;11.43;5.78;;;17.90;99.90;;;;;;4173903;28;20037;-64
2022/06/21 02:35:38;;;;;;;9.07;6.68;;;17.90;99.90;;;;;;4172855;28;20028;-64
2022/06/21 02:37:39;;;;;;;13.18;6.50;;;17.90;99.90;;;;;;4171873;28;20385;-65
2022/06/21 02:39:41;;;;;;;14.60;5.80;;;17.80;99.90;;;;;;4205774;28;20085;-64
2022/06/21 02:41:46;;;;;;;9.93;6.07;;;17.80;99.90;;;;;;4207192;28;20885;-64
2022/06/21 02:43:54;;;;;;;11.60;5.57;;;17.80;99.90;;;;;;4206137;28;20036;-65
2022/06/21 02:46:08;;;;;;;10.63;6.05;;;17.80;99.90;;;;;;4207173;28;20848;-65
2022/06/21 02:48:16;;;;;;;14.20;5.80;;;17.70;99.90;;;;;;4205342;28;20059;-63
2022/06/21 02:50:29;;;;;;;11.30;7.05;;;17.70;99.90;;;;;;4190892;28;20098;-65
2022/06/21 02:52:38;;;;;;;23.15;7.18;;;17.70;99.90;;;;;;4188946;28;20082;-65
2022/06/21 02:54:59;;;;;;;12.90;6.17;;;17.60;99.90;;;;;;4191531;28;20087;-65
2022/06/21 02:57:08;;;;;;;9.50;6.60;;;17.60;99.90;;;;;;4188953;28;20024;-64
2022/06/21 02:59:11;;;;;;;9.52;6.40;;;17.70;99.90;;;;;;4190453;28;20024;-64
2022/06/21 03:01:35;;;;;;;14.57;6.18;;;17.90;99.90;;;;;;4188760;28;20715;-65
2022/06/21 03:03:36;;;;;;;9.73;6.25;;;18.20;99.90;;;;;;4190474;28;20419;-66
2022/06/21 03:05:37;;;;;;;13.43;6.97;;;18.50;99.90;;;;;;4189250;28;20032;-64
2022/06/21 03:07:41;;;;;;;10.88;6.07;;;18.90;99.90;;;;;;4190603;28;20024;-66
2022/06/21 03:09:42;;;;;;;13.77;6.45;;;19.20;99.90;;;;;;4202246;28;20572;-68
2022/06/21 03:11:47;;;;;;;11.63;6.47;;;19.50;99.90;;;;;;4192481;28;20040;-65
2022/06/21 03:13:49;;;;;;;13.05;6.32;;;19.80;99.90;;;;;;4189564;28;20423;-65
2022/06/21 03:15:55;;;;;;;14.35;6.95;;;20.10;99.90;;;;;;4190164;28;20074;-67
2022/06/21 03:18:13;;;;;;;13.85;5.85;;;20.40;99.90;;;;;;4189702;28;20053;-65
2022/06/21 03:20:19;;;;;;;16.05;6.93;;;20.70;99.90;;;;;;4190393;28;20333;-66
2022/06/21 03:22:24;;;;;;;14.55;6.68;;;21.00;99.90;;;;;;4189661;28;20059;-64
2022/06/21 03:24:27;;;;;;;14.25;6.72;;;21.30;99.90;;;;;;4195629;28;20045;-65
2022/06/21 03:26:28;;;;;;;22.25;6.85;;;21.50;99.90;;;;;;4205884;28;20063;-65
2022/06/21 03:28:38;;;;;;;11.43;6.53;;;21.50;99.90;;;;;;4205644;28;20783;-64
2022/06/21 03:30:40;;;;;;;12.48;7.00;;;21.40;99.90;;;;;;4202787;28;20628;-64
2022/06/21 03:32:41;;;;;;;14.38;5.85;;;21.70;99.90;;;;;;4188689;28;20045;-65
2022/06/21 03:34:43;;;;;;;13.13;7.00;;;22.00;99.90;;;;;;4194067;28;20045;-63
2022/06/21 03:36:45;;;;;;;9.20;5.63;;;22.40;99.90;;;;;;4191601;28;20446;-65
2022/06/21 03:38:49;;;;;;;13.05;5.47;;;22.80;99.90;;;;;;4193375;28;20044;-64
2022/06/21 03:43:27;;;;;;;15.38;6.50;;;23.40;99.90;;;;;;4192977;28;20088;-67
2022/06/21 03:45:35;;;;;;;19.65;7.68;;;23.80;99.90;;;;;;4178699;28;20029;-64
2022/06/21 03:47:47;;;;;;;27.02;8.95;;;23.90;99.90;;;;;;4193319;28;20041;-66
2022/06/21 03:50:10;;;;;;;20.73;8.95;;;24.00;99.90;;;;;;4192179;28;21155;-66
2022/06/21 03:52:44;;;;;;;18.67;7.40;;;24.30;99.90;;;;;;4193478;28;20029;-69
2022/06/21 03:54:48;;;;;;;19.38;6.53;;;24.70;99.90;;;;;;4191938;28;20037;-65
2022/06/21 03:56:57;;;;;;;20.35;9.30;;;25.10;99.90;;;;;;4192961;28;20526;-67
2022/06/21 03:59:16;;;;;;;13.82;6.47;;;25.40;99.90;;;;;;4192238;28;20048;-67
2022/06/21 04:01:35;;;;;;;19.58;8.25;;;25.30;99.90;;;;;;4191801;28;20071;-68
2022/06/21 04:03:39;;;;;;;19.23;7.10;;;25.50;99.90;;;;;;4192590;28;20033;-66
2022/06/21 04:05:58;;;;;;;15.65;6.25;;;26.10;99.90;;;;;;4191745;28;20020;-65
2022/06/21 04:08:36;;;;;;;10.27;4.95;;;26.60;99.20;;;;;;4192148;28;20071;-74
2022/06/21 04:10:58;;;;;;;10.38;5.03;;;27.00;98.00;;;;;;4185140;28;20106;-67
2022/06/21 04:13:08;;;;;;;7.60;5.03;;;27.60;96.40;;;;;;4192402;28;20037;-66
2022/06/21 04:15:34;;;;;;;14.23;5.45;;;28.00;96.80;;;;;;4189847;28;20044;-68
2022/06/21 04:17:41;;;;;;;9.07;4.97;;;28.30;95.60;;;;;;4203437;28;20133;-64
2022/06/21 04:19:56;;;;;;;12.50;5.13;;;28.50;95.60;;;;;;4192486;28;20086;-71
2022/06/21 04:22:10;;;;;;;7.03;3.70;;;29.00;94.60;;;;;;4175780;28;20024;-65
2022/06/21 04:24:18;;;;;;;7.82;4.50;;;29.40;93.40;;;;;;4173512;28;20127;-65
2022/06/21 04:26:29;;;;;;;9.75;4.30;;;30.00;92.70;;;;;;4189468;28;20086;-68
2022/06/21 04:28:37;;;;;;;10.60;4.30;;;30.20;91.70;;;;;;4190779;28;20479;-64
2022/06/21 04:31:00;;;;;;;9.68;5.18;;;30.40;91.40;;;;;;4190801;28;20732;-64
2022/06/21 04:33:06;;;;;;;10.57;5.68;;;30.50;90.60;;;;;;4190585;28;20044;-65
2022/06/21 04:35:21;;;;;;;13.52;5.20;;;30.80;90.60;;;;;;4205612;28;20067;-65
2022/06/21 04:37:53;;;;;;;8.32;4.70;;;31.20;89.50;;;;;;4207155;28;20028;-68
2022/06/21 04:40:11;;;;;;;16.95;4.90;;;31.20;87.80;;;;;;4200040;28;20114;-65
2022/06/21 04:42:42;;;;;;;17.60;5.32;;;30.60;87.50;;;;;;4190617;28;20044;-70
2022/06/21 04:44:46;;;;;;;17.77;4.82;;;30.50;87.50;;;;;;4191285;28;20074;-68
2022/06/21 04:46:58;;;;;;;11.88;3.95;;;30.40;89.70;;;;;;4190547;28;20420;-70
2022/06/21 04:49:02;;;;;;;12.02;3.60;;;30.50;86.20;;;;;;4190414;28;20439;-66
2022/06/21 04:51:09;;;;;;;11.48;4.30;;;30.60;87.30;;;;;;4201729;28;20090;-62
2022/06/21 04:53:31;;;;;;;11.55;4.10;;;30.80;86.40;;;;;;4192639;28;20028;-66
2022/06/21 04:55:49;;;;;;;11.93;3.92;;;31.30;83.90;;;;;;4190004;28;20048;-67
2022/06/21 04:57:51;;;;;;;9.70;3.08;;;31.20;82.20;;;;;;4190021;28;20024;-64
2022/06/21 04:59:56;;;;;;;17.23;4.43;;;31.40;84.40;;;;;;4191026;28;20043;-75
2022/06/21 05:01:58;;;;;;;9.85;3.78;;;31.50;83.20;;;;;;4191051;28;20048;-69
2022/06/21 05:04:12;;;;;;;6.07;3.42;;;31.50;83.30;;;;;;4192109;28;20074;-66
2022/06/21 05:06:14;;;;;;;5.85;2.40;;;31.80;81.30;;;;;;4191390;28;20070;-64
2022/06/21 05:08:20;;;;;;;11.70;2.53;;;32.00;80.90;;;;;;4191122;28;20086;-65
2022/06/21 05:10:26;;;;;;;9.48;2.45;;;32.10;78.80;;;;;;4191047;28;20040;-65
2022/06/21 05:12:34;;;;;;;8.02;2.50;;;32.50;78.60;;;;;;4190938;28;20021;-69
2022/06/21 05:14:41;;;;;;;7.82;2.78;;;32.40;77.80;;;;;;4187496;28;20161;-65
2022/06/21 05:16:42;;;;;;;6.97;3.13;;;32.20;78.00;;;;;;4190971;28;20062;-69
2022/06/21 05:18:56;;;;;;;8.20;3.00;;;31.80;78.40;;;;;;4189415;28;20045;-70
2022/06/21 05:21:13;;;;;;;10.80;3.40;;;31.40;78.60;;;;;;4190523;28;20098;-65
2022/06/21 05:23:17;;;;;;;13.00;3.20;;;31.10;78.30;;;;;;4190270;28;20502;-64
2022/06/21 05:25:24;;;;;;;7.28;2.50;;;31.10;78.90;;;;;;4190108;28;20090;-65
2022/06/21 05:27:35;;;;;;;8.25;2.75;;;30.80;79.10;;;;;;4189990;28;20463;-65
2022/06/21 05:30:08;;;;;;;10.43;3.03;;;30.70;79.10;;;;;;4189703;28;20048;-69
2022/06/21 05:32:17;;;;;;;6.55;2.80;;;30.50;78.20;;;;;;4189706;28;20029;-64
2022/06/21 05:34:21;;;;;;;;;;;30.50;78.90;;;;;;4191236;28;20094;-64
2022/06/21 05:36:31;;;;;;;3.95;2.13;;;30.00;77.00;;;;;;4189812;28;20443;-68
2022/06/21 05:38:35;;;;;;;4.88;1.90;;;29.80;79.40;;;;;;4190497;28;20029;-64
2022/06/21 05:41:31;;;;;;;2.13;1.90;;;29.70;79.60;;;;;;4190086;28;20066;-64
2022/06/21 05:43:45;;;;;;;4.30;1.80;;;29.70;78.80;;;;;;4184522;28;20045;-66
2022/06/21 05:46:12;;;;;;;4.05;1.92;;;29.70;78.80;;;;;;4189366;28;20066;-70
2022/06/21 05:48:29;;;;;;;5.78;1.83;;;29.50;78.60;;;;;;4190355;28;20566;-63
2022/06/21 05:50:34;;;;;;;4.15;1.95;;;29.60;79.50;;;;;;4189978;28;20102;-69
2022/06/21 05:52:43;;;;;;;3.65;2.30;;;30.10;79.50;;;;;;4190607;28;20050;-65
2022/06/21 05:54:56;;;;;;;5.78;2.42;;;30.30;79.60;;;;;;4189557;28;20444;-65
2022/06/21 05:57:01;;;;;;;3.42;2.03;;;30.60;78.30;;;;;;4189838;28;20045;-65
2022/06/21 05:59:08;;;;;;;2.65;2.00;;;30.60;78.20;;;;;;4188885;28;20042;-65
2022/06/21 06:01:33;;;;;;;3.33;2.00;;;30.30;78.40;;;;;;4190138;28;20045;-69
2022/06/21 06:04:03;;;;;;;5.93;2.35;;;29.90;79.00;;;;;;4189106;28;20512;-71
2022/06/21 06:06:09;;;;;;;6.25;2.28;;;29.50;79.60;;;;;;4187193;28;20052;-64
2022/06/21 06:08:16;;;;;;;5.45;2.13;;;29.40;80.10;;;;;;4188863;28;20484;-65
2022/06/21 06:10:20;;;;;;;6.45;2.30;;;29.30;80.00;;;;;;4190188;28;20097;-68
2022/06/21 06:12:31;;;;;;;4.13;2.20;;;29.10;80.10;;;;;;4189029;28;20074;-70
2022/06/21 06:14:42;;;;;;;4.78;2.20;;;28.60;80.60;;;;;;4189801;28;20024;-73
2022/06/21 06:16:47;;;;;;;7.30;2.30;;;28.20;81.80;;;;;;4189152;28;20110;-65
2022/06/21 06:19:00;;;;;;;5.82;2.78;;;28.00;83.30;;;;;;4190160;28;20016;-67
2022/06/21 06:21:11;;;;;;;13.10;3.13;;;27.60;85.60;;;;;;4189546;28;20392;-70
2022/06/21 06:23:19;;;;;;;13.55;3.40;;;27.10;87.00;;;;;;4189989;28;20094;-66
2022/06/21 06:25:39;;;;;;;3.72;2.33;;;26.80;88.30;;;;;;4188839;28;20086;-68
2022/06/21 06:27:49;;;;;;;;;;;26.50;90.00;;;;;;4190392;28;20025;-69
2022/06/21 06:29:51;;;;;;;4.13;2.40;;;26.20;91.50;;;;;;4189367;28;19916;-65
2022/06/21 06:32:04;;;;;;;4.03;2.50;;;25.90;90.90;;;;;;4190526;28;20102;-64
2022/06/21 06:34:11;;;;;;;4.90;2.85;;;25.70;92.20;;;;;;4188962;28;20089;-69
2022/06/21 06:36:34;;;;;;;3.67;2.90;;;25.40;92.50;;;;;;4190243;28;20530;-66
2022/06/21 06:38:37;;;;;;;3.85;2.88;;;25.20;93.60;;;;;;4189040;28;20024;-66
2022/06/21 06:40:42;;;;;;;3.42;2.95;;;25.00;93.70;;;;;;4190200;28;20025;-72
2022/06/21 06:42:44;;;;;;;5.22;3.35;;;24.90;94.30;;;;;;4189009;28;20090;-72
2022/06/21 06:45:00;;;;;;;3.38;2.80;;;24.90;94.70;;;;;;4190115;28;20554;-68
2022/06/21 06:47:02;;;;;;;8.70;3.67;;;24.80;95.40;;;;;;4188847;28;20029;-68
2022/06/21 06:49:20;;;;;;;8.48;3.53;;;24.80;95.60;;;;;;4190094;28;20090;-71
2022/06/21 06:51:52;;;;;;;3.15;2.83;;;24.80;97.00;;;;;;4187897;28;20032;-66
2022/06/21 06:53:55;;;;;;;5.25;2.92;;;25.00;96.60;;;;;;4189744;28;20070;-65
2022/06/21 06:56:02;;;;;;;9.48;3.67;;;25.10;96.10;;;;;;4188629;28;20029;-69
2022/06/21 06:58:17;;;;;;;5.03;3.00;;;25.30;96.30;;;;;;4189990;28;20036;-67
2022/06/21 07:00:28;;;;;;;6.50;3.38;;;25.50;96.20;;;;;;4188773;28;20090;-65
2022/06/21 07:02:47;;;;;;;21.65;8.18;;;25.90;96.10;;;;;;4189483;28;20044;-65
2022/06/21 07:05:02;;;;;;;6.43;3.58;;;26.40;95.80;;;;;;4188891;28;21077;-64
2022/06/21 07:07:20;;;;;;;9.57;5.55;;;26.60;95.50;;;;;;4189131;28;20049;-67
2022/06/21 07:09:30;;;;;;;7.43;3.15;;;26.70;95.50;;;;;;4190899;28;20538;-65
2022/06/21 07:11:54;;;;;;;7.70;3.58;;;26.60;95.30;;;;;;4191984;28;20358;-64
2022/06/21 07:13:56;;;;;;;7.75;3.55;;;26.60;95.50;;;;;;4193453;28;20090;-67
2022/06/21 07:16:06;;;;;;;5.82;3.40;;;26.50;95.40;;;;;;4192714;28;20036;-66
2022/06/21 07:18:21;;;;;;;6.88;3.13;;;26.50;95.50;;;;;;4192828;28;20097;-69
2022/06/21 07:20:37;;;;;;;7.88;3.50;;;26.50;95.50;;;;;;4190868;28;20071;-70
2022/06/21 07:22:38;;;;;;;6.13;2.92;;;26.60;95.40;;;;;;4181179;28;20040;-66
2022/06/21 07:24:39;;;;;;;5.88;3.25;;;26.60;95.40;;;;;;4175918;28;20049;-72
2022/06/21 07:26:51;;;;;;;4.93;3.22;;;26.60;95.30;;;;;;4176146;28;20033;-71
2022/06/21 07:29:14;;;;;;;4.78;2.65;;;26.60;95.30;;;;;;4175848;28;20021;-71
2022/06/21 07:31:29;;;;;;;8.15;2.72;;;26.60;95.30;;;;;;4176516;28;20087;-71
2022/06/21 07:33:39;;;;;;;3.08;2.78;;;26.70;94.60;;;;;;4175181;28;20406;-69
2022/06/21 07:35:49;;;;;;;5.80;2.95;;;26.90;94.40;;;;;;4176427;28;20033;-65
2022/06/21 07:37:57;;;;;;;6.05;2.38;;;27.10;94.00;;;;;;4174341;28;20087;-74
2022/06/21 07:40:30;;;;;;;5.47;2.67;;;27.40;93.70;;;;;;4176305;28;20028;-68
2022/06/21 07:42:42;;;;;;;7.90;2.63;;;27.60;92.00;;;;;;4175454;28;20037;-73
2022/06/21 07:44:45;;;;;;;9.18;2.50;;;27.80;92.10;;;;;;4176972;28;20024;-77
2022/06/21 07:46:51;;;;;;;6.60;2.50;;;28.00;92.00;;;;;;4175441;28;20440;-69
2022/06/21 07:48:59;;;;;;;5.60;2.47;;;28.20;91.30;;;;;;4175986;28;20025;-71
2022/06/21 07:51:18;;;;;;;8.55;2.05;;;28.40;90.80;;;;;;4175435;28;20033;-70
2022/06/21 07:53:35;;;;;;;9.65;2.50;;;28.70;90.40;;;;;;4177270;28;20025;-72
2022/06/21 07:56:18;;;;;;;3.42;1.52;;;28.90;86.10;;;;;;4175140;28;20502;-73
2022/06/21 07:58:22;;;;;;;2.13;1.77;;;28.90;84.00;;;;;;4140593;28;20120;-64
2022/06/21 08:06:40;;;;;;;8.50;1.98;;;28.80;85.80;;;;;;4139954;28;20112;-63
2022/06/21 08:06:41;;;;;;;4.90;1.70;;;28.90;84.00;;;;;;4175463;28;20095;-68
2022/06/21 08:07:51;;;;;;;2.50;1.60;;;28.80;82.20;;;;;;4175223;28;20535;-67
2022/06/21 08:10:04;;;;;;;6.47;1.60;;;28.90;82.40;;;;;;4175666;28;20536;-68
2022/06/21 08:12:08;;;;;;;5.30;1.38;;;28.90;81.60;;;;;;4175047;28;20033;-68
2022/06/21 08:14:11;;;;;;;6.20;1.73;;;29.10;80.90;;;;;;4175444;28;20365;-65
2022/06/21 08:16:18;;;;;;;4.15;1.50;;;29.10;81.10;;;;;;4175429;28;20045;-65
2022/06/21 08:18:27;;;;;;;4.70;1.67;;;29.30;79.50;;;;;;4174529;28;20040;-64
2022/06/21 08:20:34;;;;;;;3.75;1.75;;;29.30;78.60;;;;;;4174773;28;20041;-63
2022/06/21 08:22:47;;;;;;;3.88;1.73;;;29.40;78.40;;;;;;4175429;28;20106;-64
2022/06/21 08:25:21;;;;;;;6.43;1.73;;;29.40;77.90;;;;;;4175601;28;20487;-66
2022/06/21 08:27:40;;;;;;;5.40;1.50;;;29.20;76.80;;;;;;4169685;28;20041;-71
2022/06/21 08:30:00;;;;;;;4.32;1.70;;;29.10;78.00;;;;;;4174470;28;20033;-71
2022/06/21 08:32:05;;;;;;;6.95;1.90;;;29.40;78.50;;;;;;4175757;28;20428;-70
2022/06/21 08:34:07;;;;;;;5.50;1.90;;;29.60;78.30;;;;;;4174158;28;20095;-65
2022/06/21 08:36:18;;;;;;;4.00;1.42;;;29.70;78.00;;;;;;4175319;28;20045;-67
2022/06/21 08:38:31;;;;;;;5.82;2.13;;;29.70;77.10;;;;;;4172997;28;20502;-69
2022/06/21 08:40:47;;;;;;;5.55;1.60;;;29.80;76.70;;;;;;4175879;28;20470;-69
2022/06/21 08:43:22;;;;;;;4.63;1.35;;;29.60;77.00;;;;;;4174094;28;20033;-65
2022/06/21 08:45:41;;;;;;;3.80;2.13;;;29.40;76.10;;;;;;4176097;28;20542;-66
2022/06/21 08:47:57;;;;;;;1.65;1.55;;;29.40;76.70;;;;;;4173669;28;20474;-65
2022/06/21 08:50:24;;;;;;;1.17;1.02;;;29.30;75.00;;;;;;4174411;28;20636;-65
2022/06/21 08:52:56;;;;;;;2.67;1.80;;;29.10;75.30;;;;;;4173697;28;20041;-67
2022/06/21 08:55:24;;;;;;;2.40;1.40;;;29.00;74.20;;;;;;4175314;28;20040;-70
2022/06/21 08:57:46;;;;;;;6.68;2.03;;;28.90;74.40;;;;;;4174936;28;20516;-65
2022/06/21 08:59:55;;;;;;;2.28;1.25;;;28.80;74.40;;;;;;4173876;28;20427;-65
2022/06/21 09:02:06;;;;;;;6.20;1.70;;;28.80;74.70;;;;;;4174553;28;20045;-65
2022/06/21 09:04:25;;;;;;;3.38;1.55;;;28.90;74.90;;;;;;4172740;28;20162;-64
2022/06/21 09:06:47;;;;;;;3.92;2.38;;;28.90;74.50;;;;;;4175031;28;20481;-64
2022/06/21 09:08:57;;;;;;;4.30;1.48;;;28.90;74.10;;;;;;4173901;28;20439;-65
2022/06/21 09:11:30;;;;;;;8.50;1.63;;;28.90;73.60;;;;;;4174328;28;20094;-68
2022/06/21 09:13:56;;;;;;;4.70;1.45;;;28.90;73.20;;;;;;4172851;28;20029;-63
2022/06/21 09:16:13;;;;;;;3.55;1.40;;;28.80;73.50;;;;;;4175102;28;20063;-65
2022/06/21 09:18:27;;;;;;;4.50;1.27;;;28.80;72.60;;;;;;4172115;28;20075;-65
2022/06/21 09:20:54;;;;;;;3.60;1.50;;;28.80;72.70;;;;;;4175159;28;20036;-64
2022/06/21 09:23:23;;;;;;;3.85;1.30;;;28.80;71.80;;;;;;4174511;28;20428;-65
2022/06/21 09:25:47;;;;;;;5.00;1.90;;;28.80;72.20;;;;;;4174382;28;20071;-64
2022/06/21 09:27:51;;;;;;;4.47;1.58;;;28.80;71.80;;;;;;4167823;28;20094;-68
2022/06/21 09:30:14;;;;;;;4.65;1.50;;;28.80;72.40;;;;;;4173989;28;20045;-67
2022/06/21 09:32:24;;;;;;;7.97;1.67;;;28.80;72.90;;;;;;4173328;28;20032;-65
2022/06/21 09:34:53;;;;;;;4.15;1.40;;;29.00;72.90;;;;;;4188936;28;20416;-67
2022/06/21 09:37:17;;;;;;;4.10;1.67;;;29.00;71.00;;;;;;4191227;28;20535;-65
2022/06/21 09:39:31;;;;;;;4.15;1.30;;;29.10;71.60;;;;;;4189760;28;20105;-67
2022/06/21 09:42:03;;;;;;;3.83;1.88;;;29.00;71.70;;;;;;4190574;28;20028;-65
2022/06/21 09:44:29;;;;;;;6.82;1.42;;;29.10;71.90;;;;;;4189903;28;20044;-65
2022/06/21 09:46:54;;;;;;;3.67;1.55;;;29.10;71.20;;;;;;4190774;28;20062;-66
2022/06/21 09:49:19;;;;;;;2.45;1.50;;;29.20;71.10;;;;;;4189528;28;20028;-71
2022/06/21 09:51:31;;;;;;;5.13;1.45;;;29.20;70.00;;;;;;4190090;28;20088;-65
2022/06/21 09:53:43;;;;;;;5.70;1.67;;;29.10;69.30;;;;;;4189769;28;20388;-65
2022/06/21 09:56:14;;;;;;;7.72;1.45;;;29.00;69.10;;;;;;4189787;28;20036;-65
2022/06/21 09:58:22;;;;;;;6.60;1.55;;;29.00;68.30;;;;;;4190060;28;20135;-65
2022/06/21 10:00:23;;;;;;;3.53;1.40;;;29.00;68.90;;;;;;4189587;28;20093;-65
2022/06/21 10:02:39;;;;;;;2.17;0.88;;;29.00;68.50;;;;;;4190402;28;20089;-68
2022/06/21 10:05:20;;;;;;;7.07;0.95;;;29.00;66.10;;;;;;4189619;28;20089;-72
2022/06/21 10:07:27;;;;;;;4.32;0.90;;;29.10;63.60;;;;;;4190993;28;20546;-65
2022/06/21 10:09:37;;;;;;;6.95;1.52;;;29.10;64.10;;;;;;4189528;28;20082;-65
2022/06/21 10:12:10;;;;;;;6.10;0.98;;;29.00;63.20;;;;;;4190508;28;20040;-65
2022/06/21 10:14:30;;;;;;;2.72;1.52;;;28.90;63.80;;;;;;4165177;28;20515;-66
2022/06/21 10:16:57;;;;;;;1.55;0.85;;;28.80;61.60;;;;;;4190585;28;20032;-67
2022/06/21 10:19:16;;;;;;;2.72;1.02;;;28.70;61.60;;;;;;4188959;28;20752;-67
2022/06/21 10:21:38;;;;;;;5.70;2.08;;;28.70;60.70;;;;;;4189984;28;20059;-67
2022/06/21 10:23:48;;;;;;;3.25;1.30;;;28.80;62.00;;;;;;4189986;28;20036;-70
2022/06/21 10:26:17;;;;;;;7.53;0.77;;;28.90;61.90;;;;;;4190351;28;20125;-66
2022/06/21 10:28:55;;;;;;;5.57;1.10;;;28.90;59.40;;;;;;4190104;28;20028;-66
2022/06/21 10:31:01;;;;;;;4.80;1.15;;;28.80;59.30;;;;;;4172875;28;20052;-68
2022/06/21 10:33:35;;;;;;;5.05;1.10;;;28.70;60.00;;;;;;4190028;28;20040;-68
2022/06/21 10:36:15;;;;;;;7.47;1.00;;;28.70;58.80;;;;;;4188680;28;20480;-64
2022/06/21 10:38:25;;;;;;;2.85;1.15;;;28.80;57.80;;;;;;4189877;28;20138;-64
2022/06/21 10:40:51;;;;;;;8.60;0.98;;;28.90;58.70;;;;;;4189003;28;20098;-67
2022/06/21 10:43:14;;;;;;;6.25;0.60;;;29.00;56.20;;;;;;4189898;28;20899;-69
2022/06/21 10:45:49;;;;;;;5.63;0.80;;;29.00;51.30;;;;;;4188657;28;20136;-64
2022/06/21 10:48:12;;;;;;;3.80;0.60;;;28.90;50.20;;;;;;4188633;28;20029;-68
2022/06/21 10:50:37;;;;;;;11.02;0.85;;;28.70;50.80;;;;;;4189499;28;20781;-64
2022/06/21 10:52:56;;;;;;;1.75;0.50;;;28.70;47.80;;;;;;4189365;28;20125;-64
2022/06/21 10:55:02;;;;;;;3.47;0.50;;;28.70;46.90;;;;;;4189956;28;20066;-69
2022/06/21 10:57:45;;;;;;;4.88;0.80;;;28.60;47.90;;;;;;4188907;28;20141;-66
2022/06/21 11:02:33;;;;;;;8.57;1.27;;;28.70;48.70;;;;;;4188707;28;20114;-67
2022/06/21 11:04:53;;;;;;;6.22;0.88;;;28.90;48.40;;;;;;4189802;28;20044;-66
2022/06/21 11:07:14;;;;;;;2.08;0.57;;;29.00;49.30;;;;;;4189085;28;20016;-68
2022/06/21 11:09:35;;;;;;;1.40;0.70;;;29.00;49.10;;;;;;4181867;28;20498;-65
2022/06/21 11:12:52;;;;;;;3.50;0.65;;;29.00;49.70;;;;;;4189532;28;20052;-66
2022/06/21 11:15:02;;;;;;;5.28;0.73;;;29.00;51.60;;;;;;4188529;28;20546;-64
2022/06/21 11:17:17;;;;;;;3.03;0.60;;;29.10;50.10;;;;;;4173431;28;20114;-67
2022/06/21 11:19:47;;;;;;;1.98;0.40;;;29.10;48.70;;;;;;4187678;28;20036;-65
2022/06/21 11:22:12;;;;;;;2.50;0.65;;;29.20;49.40;;;;;;4189702;28;20542;-66
2022/06/21 11:24:16;;;;;;;3.67;0.50;;;29.30;48.70;;;;;;4189518;28;20040;-65
2022/06/21 11:26:38;;;;;;;2.25;0.43;;;29.40;48.90;;;;;;4189680;28;20086;-66
2022/06/21 11:29:09;;;;;;;2.72;0.38;;;29.40;46.50;;;;;;4189627;28;20082;-65
2022/06/21 11:31:28;;;;;;;1.25;0.60;;;29.40;45.60;;;;;;4188596;28;20091;-66
2022/06/21 11:33:36;;;;;;;2.88;0.50;;;29.40;47.10;;;;;;4189814;28;20029;-65
2022/06/21 11:35:46;;;;;;;4.10;0.95;;;29.50;47.30;;;;;;4188557;28;20478;-70
2022/06/21 11:38:06;;;;;;;;;;;29.50;45.90;;;;;;4189950;28;20086;-66